sensor_id;sensor_type;location;lat;lon;timestamp;temperature;humidity
12460;DHT22;6295;49.452;8.466;2024-02-28T09:14:21;5.90;99.90
12460;DHT22;6295;49.452;8.466;2024-02-28T09:18:25;5.90;99.90
12460;DHT22;6295;49.452;8.466;2024-02-28T09:22:29;6.00;99.90
12460;DHT22;6295;49.452;8.466;2024-02-28T09:26:33;6.10;99.90
12460;DHT22;6295;49.452;8.466;2024-02-28T09:30:41;6.20;99.90
12460;DHT22;6295;49.452;8.466;2024-02-28T09:34:45;6.30;99.90
12460;DHT22;6295;49.452;8.466;2024-02-28T09:38:48;6.40;99.90
12460;DHT22;6295;49.452;8.466;2024-02-28T09:42:54;6.50;99.90
12460;DHT22;6295;49.452;8.466;2024-02-28T09:47:02;6.60;99.90
12460;DHT22;6295;49.452;8.466;2024-02-28T09:51:06;6.70;99.90
12460;DHT22;6295;49.452;8.466;2024-02-28T09:59:13;6.70;99.90
12460;DHT22;6295;49.452;8.466;2024-02-28T10:03:18;6.80;99.90
12460;DHT22;6295;49.452;8.466;2024-02-28T10:07:20;6.80;99.90
12460;DHT22;6295;49.452;8.466;2024-02-28T10:11:24;6.90;99.90
12460;DHT22;6295;49.452;8.466;2024-02-28T10:15:28;6.90;99.90
12460;DHT22;6295;49.452;8.466;2024-02-28T10:19:35;7.10;99.90
12460;DHT22;6295;49.452;8.466;2024-02-28T10:23:38;7.10;99.90
12460;DHT22;6295;49.452;8.466;2024-02-28T10:31:43;7.30;99.90
12460;DHT22;6295;49.452;8.466;2024-02-28T10:35:50;7.30;99.90
12460;DHT22;6295;49.452;8.466;2024-02-28T10:39:55;7.40;99.90
12460;DHT22;6295;49.452;8.466;2024-02-28T10:44:01;7.40;99.90
12460;DHT22;6295;49.452;8.466;2024-02-28T10:48:05;7.50;99.90
12460;DHT22;6295;49.452;8.466;2024-02-28T10:52:10;7.60;99.90
12460;DHT22;6295;49.452;8.466;2024-02-28T10:56:15;7.80;99.90
12460;DHT22;6295;49.452;8.466;2024-02-28T11:04:20;8.00;99.90
12460;DHT22;6295;49.452;8.466;2024-02-28T11:08:26;8.00;99.90
12460;DHT22;6295;49.452;8.466;2024-02-28T11:12:29;8.10;99.90
12460;DHT22;6295;49.452;8.466;2024-02-28T11:20:37;8.20;99.90
12460;DHT22;6295;49.452;8.466;2024-02-28T11:28:48;8.30;99.90
12460;DHT22;6295;49.452;8.466;2024-02-28T11:32:52;8.40;99.90
12460;DHT22;6295;49.452;8.466;2024-02-28T11:36:55;8.60;99.90
12460;DHT22;6295;49.452;8.466;2024-02-28T11:45:04;8.90;99.90
12460;DHT22;6295;49.452;8.466;2024-02-28T11:49:07;9.10;99.90
12460;DHT22;6295;49.452;8.466;2024-02-28T11:53:09;9.10;99.90
12460;DHT22;6295;49.452;8.466;2024-02-28T11:57:13;9.10;99.90
12460;DHT22;6295;49.452;8.466;2024-02-28T12:01:17;9.20;99.90
12460;DHT22;6295;49.452;8.466;2024-02-28T12:05:20;9.30;99.90
12460;DHT22;6295;49.452;8.466;2024-02-28T12:09:22;9.50;99.90
12460;DHT22;6295;49.452;8.466;2024-02-28T12:13:27;9.60;99.90
12460;DHT22;6295;49.452;8.466;2024-02-28T12:17:29;9.80;99.90
12460;DHT22;6295;49.452;8.466;2024-02-28T12:21:31;9.90;99.90
12460;DHT22;6295;49.452;8.466;2024-02-28T12:29:36;10.10;99.90
12460;DHT22;6295;49.452;8.466;2024-02-28T12:33:39;10.20;99.90
12460;DHT22;6295;49.452;8.466;2024-02-28T12:37:41;10.20;99.90
12460;DHT22;6295;49.452;8.466;2024-02-28T12:41:43;10.20;99.90
12460;DHT22;6295;49.452;8.466;2024-02-28T12:45:46;10.30;99.90
12460;DHT22;6295;49.452;8.466;2024-02-28T12:49:48;10.40;99.90
12460;DHT22;6295;49.452;8.466;2024-02-28T12:57:53;10.40;99.90
12460;DHT22;6295;49.452;8.466;2024-02-28T13:01:57;10.50;99.90
12460;DHT22;6295;49.452;8.466;2024-02-28T13:10:01;10.60;99.90
12460;DHT22;6295;49.452;8.466;2024-02-28T13:14:05;10.50;99.90
12460;DHT22;6295;49.452;8.466;2024-02-28T13:18:11;10.60;99.90
12460;DHT22;6295;49.452;8.466;2024-02-28T13:22:15;10.60;99.90
12460;DHT22;6295;49.452;8.466;2024-02-28T13:26:17;10.60;99.90
12460;DHT22;6295;49.452;8.466;2024-02-28T13:30:19;10.70;99.90
12460;DHT22;6295;49.452;8.466;2024-02-28T13:34:22;10.80;99.90
12460;DHT22;6295;49.452;8.466;2024-02-28T13:38:26;10.80;99.90
12460;DHT22;6295;49.452;8.466;2024-02-28T13:46:33;10.90;99.90
12460;DHT22;6295;49.452;8.466;2024-02-28T13:50:37;11.00;99.90
12460;DHT22;6295;49.452;8.466;2024-02-28T13:54:39;11.00;99.90
12460;DHT22;6295;49.452;8.466;2024-02-28T13:58:41;11.00;99.90
12460;DHT22;6295;49.452;8.466;2024-02-28T14:02:45;11.10;99.90
12460;DHT22;6295;49.452;8.466;2024-02-28T14:06:48;11.20;99.90
12460;DHT22;6295;49.452;8.466;2024-02-28T14:10:51;11.20;99.90
12460;DHT22;6295;49.452;8.466;2024-02-28T14:18:56;11.30;99.90
12460;DHT22;6295;49.452;8.466;2024-02-28T14:22:59;11.30;99.90
12460;DHT22;6295;49.452;8.466;2024-02-28T14:27:01;11.30;99.90
12460;DHT22;6295;49.452;8.466;2024-02-28T14:31:05;11.40;99.90
12460;DHT22;6295;49.452;8.466;2024-02-28T14:35:08;11.40;99.90
12460;DHT22;6295;49.452;8.466;2024-02-28T14:39:12;11.40;99.90
12460;DHT22;6295;49.452;8.466;2024-02-28T14:43:15;11.30;99.90
12460;DHT22;6295;49.452;8.466;2024-02-28T14:47:18;11.30;99.90
12460;DHT22;6295;49.452;8.466;2024-02-28T14:51:20;11.30;99.90
12460;DHT22;6295;49.452;8.466;2024-02-28T14:59:26;11.20;99.90
12460;DHT22;6295;49.452;8.466;2024-02-28T15:03:28;11.30;99.90
12460;DHT22;6295;49.452;8.466;2024-02-28T15:11:34;11.20;99.90
12460;DHT22;6295;49.452;8.466;2024-02-28T15:23:42;11.30;99.90
12460;DHT22;6295;49.452;8.466;2024-02-28T15:31:49;11.20;99.90
12460;DHT22;6295;49.452;8.466;2024-02-28T15:39:53;11.30;99.90
12460;DHT22;6295;49.452;8.466;2024-02-28T15:48:00;11.50;99.90
12460;DHT22;6295;49.452;8.466;2024-02-28T16:00:15;11.50;99.90
12460;DHT22;6295;49.452;8.466;2024-02-28T16:04:18;11.40;99.90
12460;DHT22;6295;49.452;8.466;2024-02-28T16:08:20;11.40;99.90
12460;DHT22;6295;49.452;8.466;2024-02-28T16:12:24;11.30;99.90
12460;DHT22;6295;49.452;8.466;2024-02-28T16:16:29;11.30;99.90
12460;DHT22;6295;49.452;8.466;2024-02-28T16:20:31;11.20;99.90
12460;DHT22;6295;49.452;8.466;2024-02-28T16:24:33;11.10;99.90
12460;DHT22;6295;49.452;8.466;2024-02-28T16:32:44;11.00;99.90
